sensor_id;sensor_type;location;lat;lon;timestamp;temperature;humidity
23681;DHT22;62915;50.832;4.462;2023-10-09T00:00:16;19.70;99.90
23681;DHT22;62915;50.832;4.462;2023-10-09T00:03:01;19.60;99.90
23681;DHT22;62915;50.832;4.462;2023-10-09T00:05:27;19.50;99.90
23681;DHT22;62915;50.832;4.462;2023-10-09T00:08:08;19.50;99.90
23681;DHT22;62915;50.832;4.462;2023-10-09T00:10:34;19.50;99.90
23681;DHT22;62915;50.832;4.462;2023-10-09T00:13:23;19.50;99.90
23681;DHT22;62915;50.832;4.462;2023-10-09T00:15:55;19.50;99.90
23681;DHT22;62915;50.832;4.462;2023-10-09T00:18:27;19.30;99.90
23681;DHT22;62915;50.832;4.462;2023-10-09T00:20:59;19.30;99.90
23681;DHT22;62915;50.832;4.462;2023-10-09T00:23:38;19.30;99.90
23681;DHT22;62915;50.832;4.462;2023-10-09T00:26:05;19.40;99.90
23681;DHT22;62915;50.832;4.462;2023-10-09T00:28:37;19.30;99.90
23681;DHT22;62915;50.832;4.462;2023-10-09T00:31:04;19.30;99.90
23681;DHT22;62915;50.832;4.462;2023-10-09T00:33:32;19.30;99.90
23681;DHT22;62915;50.832;4.462;2023-10-09T00:36:05;19.30;99.90
23681;DHT22;62915;50.832;4.462;2023-10-09T00:38:39;19.40;99.90
23681;DHT22;62915;50.832;4.462;2023-10-09T00:41:10;19.40;99.90
23681;DHT22;62915;50.832;4.462;2023-10-09T00:43:39;19.40;99.90
23681;DHT22;62915;50.832;4.462;2023-10-09T00:46:09;19.20;99.90
23681;DHT22;62915;50.832;4.462;2023-10-09T00:48:54;19.30;99.90
23681;DHT22;62915;50.832;4.462;2023-10-09T00:51:22;19.30;99.90
23681;DHT22;62915;50.832;4.462;2023-10-09T00:53:54;19.30;99.90
23681;DHT22;62915;50.832;4.462;2023-10-09T00:56:21;19.30;99.90
23681;DHT22;62915;50.832;4.462;2023-10-09T00:58:51;19.30;99.90
23681;DHT22;62915;50.832;4.462;2023-10-09T01:01:25;19.30;99.90
23681;DHT22;62915;50.832;4.462;2023-10-09T01:04:00;19.30;99.90
23681;DHT22;62915;50.832;4.462;2023-10-09T01:06:33;19.20;99.90
23681;DHT22;62915;50.832;4.462;2023-10-09T01:08:59;19.20;99.90
23681;DHT22;62915;50.832;4.462;2023-10-09T01:11:43;19.10;99.90
23681;DHT22;62915;50.832;4.462;2023-10-09T01:14:35;19.10;99.90
23681;DHT22;62915;50.832;4.462;2023-10-09T01:17:06;19.10;99.90
23681;DHT22;62915;50.832;4.462;2023-10-09T01:19:33;19.10;99.90
23681;DHT22;62915;50.832;4.462;2023-10-09T01:21:59;19.10;99.90
23681;DHT22;62915;50.832;4.462;2023-10-09T01:24:43;19.00;99.90
23681;DHT22;62915;50.832;4.462;2023-10-09T01:27:09;19.00;99.90
23681;DHT22;62915;50.832;4.462;2023-10-09T01:29:41;19.00;99.90
23681;DHT22;62915;50.832;4.462;2023-10-09T01:32:11;19.00;99.90
23681;DHT22;62915;50.832;4.462;2023-10-09T01:34:45;19.10;99.90
23681;DHT22;62915;50.832;4.462;2023-10-09T01:37:16;19.00;99.90
23681;DHT22;62915;50.832;4.462;2023-10-09T01:39:53;19.00;99.90
23681;DHT22;62915;50.832;4.462;2023-10-09T01:42:21;19.10;99.90
23681;DHT22;62915;50.832;4.462;2023-10-09T01:44:56;19.10;99.90
23681;DHT22;62915;50.832;4.462;2023-10-09T01:47:24;19.10;99.90
23681;DHT22;62915;50.832;4.462;2023-10-09T01:49:51;18.90;99.90
23681;DHT22;62915;50.832;4.462;2023-10-09T01:52:19;18.90;99.90
23681;DHT22;62915;50.832;4.462;2023-10-09T01:54:47;18.90;99.90
23681;DHT22;62915;50.832;4.462;2023-10-09T01:57:17;18.90;99.90
23681;DHT22;62915;50.832;4.462;2023-10-09T01:59:48;18.90;99.90
23681;DHT22;62915;50.832;4.462;2023-10-09T02:02:21;18.80;99.90
23681;DHT22;62915;50.832;4.462;2023-10-09T02:05:09;18.80;99.90
23681;DHT22;62915;50.832;4.462;2023-10-09T02:07:41;18.80;99.90
23681;DHT22;62915;50.832;4.462;2023-10-09T02:10:14;18.80;99.90
23681;DHT22;62915;50.832;4.462;2023-10-09T02:13:05;18.90;99.90
23681;DHT22;62915;50.832;4.462;2023-10-09T02:15:40;18.90;99.90
23681;DHT22;62915;50.832;4.462;2023-10-09T02:18:16;18.80;99.90
23681;DHT22;62915;50.832;4.462;2023-10-09T02:23:25;18.80;99.90
23681;DHT22;62915;50.832;4.462;2023-10-09T02:25:58;18.70;99.90
23681;DHT22;62915;50.832;4.462;2023-10-09T02:28:28;18.80;99.90
23681;DHT22;62915;50.832;4.462;2023-10-09T02:30:58;18.90;99.90
23681;DHT22;62915;50.832;4.462;2023-10-09T02:33:26;18.80;99.90
23681;DHT22;62915;50.832;4.462;2023-10-09T02:35:58;18.80;99.90
23681;DHT22;62915;50.832;4.462;2023-10-09T02:38:31;18.80;99.90
23681;DHT22;62915;50.832;4.462;2023-10-09T02:41:01;18.80;99.90
23681;DHT22;62915;50.832;4.462;2023-10-09T02:43:32;18.70;99.90
23681;DHT22;62915;50.832;4.462;2023-10-09T02:46:18;18.70;99.90
23681;DHT22;62915;50.832;4.462;2023-10-09T02:48:48;18.80;99.90
23681;DHT22;62915;50.832;4.462;2023-10-09T02:51:22;18.80;99.90
23681;DHT22;62915;50.832;4.462;2023-10-09T02:54:04;18.80;99.90
23681;DHT22;62915;50.832;4.462;2023-10-09T02:56:35;18.70;99.90
23681;DHT22;62915;50.832;4.462;2023-10-09T02:59:13;18.70;99.90
23681;DHT22;62915;50.832;4.462;2023-10-09T03:01:40;18.60;99.90
23681;DHT22;62915;50.832;4.462;2023-10-09T03:04:06;18.60;99.90
23681;DHT22;62915;50.832;4.462;2023-10-09T03:06:36;18.60;99.90
23681;DHT22;62915;50.832;4.462;2023-10-09T03:09:09;18.70;99.90
23681;DHT22;62915;50.832;4.462;2023-10-09T03:11:49;18.70;99.90
23681;DHT22;62915;50.832;4.462;2023-10-09T03:14:29;18.60;99.90
23681;DHT22;62915;50.832;4.462;2023-10-09T03:16:57;18.60;99.90
23681;DHT22;62915;50.832;4.462;2023-10-09T03:19:25;18.70;99.90
23681;DHT22;62915;50.832;4.462;2023-10-09T03:21:52;18.70;99.90
23681;DHT22;62915;50.832;4.462;2023-10-09T03:24:18;18.70;99.90
23681;DHT22;62915;50.832;4.462;2023-10-09T03:26:45;18.60;99.90
23681;DHT22;62915;50.832;4.462;2023-10-09T03:29:12;18.60;99.90
23681;DHT22;62915;50.832;4.462;2023-10-09T03:31:38;18.60;99.90
23681;DHT22;62915;50.832;4.462;2023-10-09T03:34:05;18.40;99.90
23681;DHT22;62915;50.832;4.462;2023-10-09T03:36:31;18.50;99.90
23681;DHT22;62915;50.832;4.462;2023-10-09T03:39:03;18.40;99.90
23681;DHT22;62915;50.832;4.462;2023-10-09T03:41:33;18.40;99.90
23681;DHT22;62915;50.832;4.462;2023-10-09T03:44:06;18.40;99.90
23681;DHT22;62915;50.832;4.462;2023-10-09T03:46:32;18.40;99.90
23681;DHT22;62915;50.832;4.462;2023-10-09T03:48:59;18.20;99.90
23681;DHT22;62915;50.832;4.462;2023-10-09T03:51:29;18.30;99.90
23681;DHT22;62915;50.832;4.462;2023-10-09T03:53:55;18.30;99.90
23681;DHT22;62915;50.832;4.462;2023-10-09T03:56:21;18.30;99.90
23681;DHT22;62915;50.832;4.462;2023-10-09T03:58:51;18.40;99.90
23681;DHT22;62915;50.832;4.462;2023-10-09T04:01:21;18.30;99.90
23681;DHT22;62915;50.832;4.462;2023-10-09T04:03:47;18.40;99.90
23681;DHT22;62915;50.832;4.462;2023-10-09T04:06:13;18.30;99.90
23681;DHT22;62915;50.832;4.462;2023-10-09T04:08:40;18.30;99.90
23681;DHT22;62915;50.832;4.462;2023-10-09T04:11:13;18.30;99.90
23681;DHT22;62915;50.832;4.462;2023-10-09T04:13:45;18.20;99.90
23681;DHT22;62915;50.832;4.462;2023-10-09T04:16:15;18.10;99.90
23681;DHT22;62915;50.832;4.462;2023-10-09T04:19:01;18.10;99.90
23681;DHT22;62915;50.832;4.462;2023-10-09T04:21:36;18.10;99.90
23681;DHT22;62915;50.832;4.462;2023-10-09T04:24:07;18.10;99.90
23681;DHT22;62915;50.832;4.462;2023-10-09T04:26:43;18.10;99.90
23681;DHT22;62915;50.832;4.462;2023-10-09T04:29:15;18.10;99.90
23681;DHT22;62915;50.832;4.462;2023-10-09T04:31:55;18.10;99.90
23681;DHT22;62915;50.832;4.462;2023-10-09T04:34:22;18.20;99.90
23681;DHT22;62915;50.832;4.462;2023-10-09T04:37:08;18.20;99.90
23681;DHT22;62915;50.832;4.462;2023-10-09T04:39:43;18.30;99.90
23681;DHT22;62915;50.832;4.462;2023-10-09T04:42:38;18.20;99.90
23681;DHT22;62915;50.832;4.462;2023-10-09T04:45:11;18.20;99.90
23681;DHT22;62915;50.832;4.462;2023-10-09T04:47:40;18.00;99.90
23681;DHT22;62915;50.832;4.462;2023-10-09T04:50:15;18.10;99.90
23681;DHT22;62915;50.832;4.462;2023-10-09T04:52:44;18.00;99.90
23681;DHT22;62915;50.832;4.462;2023-10-09T04:55:10;18.00;99.90
23681;DHT22;62915;50.832;4.462;2023-10-09T04:57:36;18.00;99.90
23681;DHT22;62915;50.832;4.462;2023-10-09T05:00:09;18.10;99.90
23681;DHT22;62915;50.832;4.462;2023-10-09T05:02:50;18.10;99.90
23681;DHT22;62915;50.832;4.462;2023-10-09T05:05:23;18.00;99.90
23681;DHT22;62915;50.832;4.462;2023-10-09T05:08:11;18.00;99.90
23681;DHT22;62915;50.832;4.462;2023-10-09T05:11:01;18.00;99.90
23681;DHT22;62915;50.832;4.462;2023-10-09T05:13:34;17.90;99.90
23681;DHT22;62915;50.832;4.462;2023-10-09T05:16:09;17.90;99.90
23681;DHT22;62915;50.832;4.462;2023-10-09T05:18:47;17.90;99.90
23681;DHT22;62915;50.832;4.462;2023-10-09T05:21:45;18.00;99.90
23681;DHT22;62915;50.832;4.462;2023-10-09T05:24:12;18.00;99.90
23681;DHT22;62915;50.832;4.462;2023-10-09T05:29:19;17.80;99.90
23681;DHT22;62915;50.832;4.462;2023-10-09T05:31:54;17.80;99.90
23681;DHT22;62915;50.832;4.462;2023-10-09T05:34:29;17.90;99.90
23681;DHT22;62915;50.832;4.462;2023-10-09T05:37:14;18.00;99.90
23681;DHT22;62915;50.832;4.462;2023-10-09T05:39:46;17.90;99.90
23681;DHT22;62915;50.832;4.462;2023-10-09T05:42:27;17.90;99.90
23681;DHT22;62915;50.832;4.462;2023-10-09T05:45:15;17.90;99.90
23681;DHT22;62915;50.832;4.462;2023-10-09T05:47:51;17.80;99.90
23681;DHT22;62915;50.832;4.462;2023-10-09T05:50:20;17.90;99.90
23681;DHT22;62915;50.832;4.462;2023-10-09T05:52:53;17.90;99.90
23681;DHT22;62915;50.832;4.462;2023-10-09T05:55:23;17.80;99.90
23681;DHT22;62915;50.832;4.462;2023-10-09T05:58:07;17.90;99.90
23681;DHT22;62915;50.832;4.462;2023-10-09T06:00:52;17.90;99.90
23681;DHT22;62915;50.832;4.462;2023-10-09T06:03:36;17.90;99.90
23681;DHT22;62915;50.832;4.462;2023-10-09T06:06:14;17.90;99.90
23681;DHT22;62915;50.832;4.462;2023-10-09T06:09:05;18.00;99.90
23681;DHT22;62915;50.832;4.462;2023-10-09T06:11:41;18.00;99.90
23681;DHT22;62915;50.832;4.462;2023-10-09T06:14:16;18.00;99.90
23681;DHT22;62915;50.832;4.462;2023-10-09T06:16:52;18.00;99.90
23681;DHT22;62915;50.832;4.462;2023-10-09T06:19:47;18.00;99.90
23681;DHT22;62915;50.832;4.462;2023-10-09T06:22:14;18.00;99.90
23681;DHT22;62915;50.832;4.462;2023-10-09T06:24:59;18.00;99.90
23681;DHT22;62915;50.832;4.462;2023-10-09T06:27:36;18.00;99.90
23681;DHT22;62915;50.832;4.462;2023-10-09T06:30:02;18.00;99.90
23681;DHT22;62915;50.832;4.462;2023-10-09T06:32:49;17.90;99.90
23681;DHT22;62915;50.832;4.462;2023-10-09T06:35:20;18.00;99.90
23681;DHT22;62915;50.832;4.462;2023-10-09T06:37:57;18.00;99.90
23681;DHT22;62915;50.832;4.462;2023-10-09T06:40:39;18.00;99.90
23681;DHT22;62915;50.832;4.462;2023-10-09T06:43:14;18.00;99.90
23681;DHT22;62915;50.832;4.462;2023-10-09T06:45:43;17.90;99.90
23681;DHT22;62915;50.832;4.462;2023-10-09T06:48:10;17.90;99.90
23681;DHT22;62915;50.832;4.462;2023-10-09T06:50:56;17.80;99.90
23681;DHT22;62915;50.832;4.462;2023-10-09T06:53:30;17.80;99.90
23681;DHT22;62915;50.832;4.462;2023-10-09T06:56:14;17.80;99.90
23681;DHT22;62915;50.832;4.462;2023-10-09T06:59:02;17.80;99.90
23681;DHT22;62915;50.832;4.462;2023-10-09T07:01:51;17.80;99.90
23681;DHT22;62915;50.832;4.462;2023-10-09T07:04:36;17.80;99.90
23681;DHT22;62915;50.832;4.462;2023-10-09T07:07:02;17.90;99.90
23681;DHT22;62915;50.832;4.462;2023-10-09T07:09:33;17.90;99.90
23681;DHT22;62915;50.832;4.462;2023-10-09T07:12:09;17.80;99.90
23681;DHT22;62915;50.832;4.462;2023-10-09T07:14:51;17.80;99.90
23681;DHT22;62915;50.832;4.462;2023-10-09T07:17:32;17.90;99.90
23681;DHT22;62915;50.832;4.462;2023-10-09T07:19:58;17.90;99.90
23681;DHT22;62915;50.832;4.462;2023-10-09T07:22:41;18.00;99.90
23681;DHT22;62915;50.832;4.462;2023-10-09T07:25:22;18.00;99.90
23681;DHT22;62915;50.832;4.462;2023-10-09T07:28:07;18.00;99.90
23681;DHT22;62915;50.832;4.462;2023-10-09T07:30:45;18.00;99.90
23681;DHT22;62915;50.832;4.462;2023-10-09T07:33:11;18.20;99.90
23681;DHT22;62915;50.832;4.462;2023-10-09T07:35:42;18.20;99.90
23681;DHT22;62915;50.832;4.462;2023-10-09T07:38:08;18.30;99.90
23681;DHT22;62915;50.832;4.462;2023-10-09T07:40:35;18.30;99.90
23681;DHT22;62915;50.832;4.462;2023-10-09T07:43:20;18.10;99.90
23681;DHT22;62915;50.832;4.462;2023-10-09T07:45:52;18.10;99.90
23681;DHT22;62915;50.832;4.462;2023-10-09T07:48:24;18.10;99.90
23681;DHT22;62915;50.832;4.462;2023-10-09T07:51:13;18.10;99.90
23681;DHT22;62915;50.832;4.462;2023-10-09T07:53:39;18.20;99.90
23681;DHT22;62915;50.832;4.462;2023-10-09T07:56:13;18.30;99.90
23681;DHT22;62915;50.832;4.462;2023-10-09T07:58:47;18.50;99.90
23681;DHT22;62915;50.832;4.462;2023-10-09T08:01:16;18.70;99.90
23681;DHT22;62915;50.832;4.462;2023-10-09T08:03:48;18.80;99.90
23681;DHT22;62915;50.832;4.462;2023-10-09T08:06:24;19.00;99.90
23681;DHT22;62915;50.832;4.462;2023-10-09T08:09:13;19.00;99.90
23681;DHT22;62915;50.832;4.462;2023-10-09T08:11:47;19.00;99.90
23681;DHT22;62915;50.832;4.462;2023-10-09T08:14:42;18.90;99.90
23681;DHT22;62915;50.832;4.462;2023-10-09T08:17:08;18.90;99.90
23681;DHT22;62915;50.832;4.462;2023-10-09T08:19:49;18.90;99.90
23681;DHT22;62915;50.832;4.462;2023-10-09T08:22:36;18.90;99.90
23681;DHT22;62915;50.832;4.462;2023-10-09T08:25:10;18.80;99.90
23681;DHT22;62915;50.832;4.462;2023-10-09T08:27:52;18.70;99.90
23681;DHT22;62915;50.832;4.462;2023-10-09T08:30:23;18.70;99.90
23681;DHT22;62915;50.832;4.462;2023-10-09T08:32:52;18.80;99.90
23681;DHT22;62915;50.832;4.462;2023-10-09T08:35:36;18.70;99.90
23681;DHT22;62915;50.832;4.462;2023-10-09T08:38:15;18.80;99.90
23681;DHT22;62915;50.832;4.462;2023-10-09T08:40:43;18.70;99.90
23681;DHT22;62915;50.832;4.462;2023-10-09T08:43:15;18.70;99.90
23681;DHT22;62915;50.832;4.462;2023-10-09T08:45:54;18.90;99.90
23681;DHT22;62915;50.832;4.462;2023-10-09T08:48:26;19.00;99.90
23681;DHT22;62915;50.832;4.462;2023-10-09T08:50:54;19.10;99.90
23681;DHT22;62915;50.832;4.462;2023-10-09T08:53:21;19.10;99.90
23681;DHT22;62915;50.832;4.462;2023-10-09T08:55:47;19.20;99.90
23681;DHT22;62915;50.832;4.462;2023-10-09T08:58:16;19.10;99.90
23681;DHT22;62915;50.832;4.462;2023-10-09T09:01:03;19.20;99.90
23681;DHT22;62915;50.832;4.462;2023-10-09T09:03:42;19.00;99.90
23681;DHT22;62915;50.832;4.462;2023-10-09T09:06:10;19.10;99.90
23681;DHT22;62915;50.832;4.462;2023-10-09T09:08:37;19.10;99.90
23681;DHT22;62915;50.832;4.462;2023-10-09T09:11:11;19.20;99.90
23681;DHT22;62915;50.832;4.462;2023-10-09T09:13:44;19.20;99.90
23681;DHT22;62915;50.832;4.462;2023-10-09T09:16:15;19.10;99.90
23681;DHT22;62915;50.832;4.462;2023-10-09T09:18:57;19.10;99.90
23681;DHT22;62915;50.832;4.462;2023-10-09T09:21:50;19.10;99.90
23681;DHT22;62915;50.832;4.462;2023-10-09T09:24:20;19.20;99.90
23681;DHT22;62915;50.832;4.462;2023-10-09T09:26:50;19.20;99.90
23681;DHT22;62915;50.832;4.462;2023-10-09T09:32:11;19.50;99.90
23681;DHT22;62915;50.832;4.462;2023-10-09T09:34:44;19.60;99.90
23681;DHT22;62915;50.832;4.462;2023-10-09T09:37:21;19.70;99.90
23681;DHT22;62915;50.832;4.462;2023-10-09T09:39:51;19.90;99.90
23681;DHT22;62915;50.832;4.462;2023-10-09T09:42:18;20.00;99.90
23681;DHT22;62915;50.832;4.462;2023-10-09T09:44:51;20.00;99.90
23681;DHT22;62915;50.832;4.462;2023-10-09T09:47:17;20.00;99.90
23681;DHT22;62915;50.832;4.462;2023-10-09T09:49:51;19.90;99.90
23681;DHT22;62915;50.832;4.462;2023-10-09T09:52:18;19.90;99.90
23681;DHT22;62915;50.832;4.462;2023-10-09T09:54:44;19.90;99.90
23681;DHT22;62915;50.832;4.462;2023-10-09T09:57:15;20.00;99.90
23681;DHT22;62915;50.832;4.462;2023-10-09T09:59:54;20.10;99.90
23681;DHT22;62915;50.832;4.462;2023-10-09T10:02:29;20.20;99.90
23681;DHT22;62915;50.832;4.462;2023-10-09T10:05:02;20.30;99.90
23681;DHT22;62915;50.832;4.462;2023-10-09T10:07:34;20.20;99.90
23681;DHT22;62915;50.832;4.462;2023-10-09T10:11:00;20.20;99.90
23681;DHT22;62915;50.832;4.462;2023-10-09T10:16:09;20.40;99.90
23681;DHT22;62915;50.832;4.462;2023-10-09T10:18:59;20.30;99.90
23681;DHT22;62915;50.832;4.462;2023-10-09T10:21:29;20.20;99.90
23681;DHT22;62915;50.832;4.462;2023-10-09T10:23:59;20.20;99.90
23681;DHT22;62915;50.832;4.462;2023-10-09T10:26:37;20.20;99.90
23681;DHT22;62915;50.832;4.462;2023-10-09T10:29:17;20.20;99.90
23681;DHT22;62915;50.832;4.462;2023-10-09T10:32:02;20.10;99.90
23681;DHT22;62915;50.832;4.462;2023-10-09T10:34:52;20.30;99.90
23681;DHT22;62915;50.832;4.462;2023-10-09T10:37:36;20.20;99.90
23681;DHT22;62915;50.832;4.462;2023-10-09T10:40:26;20.30;99.90
23681;DHT22;62915;50.832;4.462;2023-10-09T10:43:07;20.20;99.90
23681;DHT22;62915;50.832;4.462;2023-10-09T10:46:07;20.40;99.90
23681;DHT22;62915;50.832;4.462;2023-10-09T10:48:51;20.30;99.90
23681;DHT22;62915;50.832;4.462;2023-10-09T10:51:28;20.20;99.90
23681;DHT22;62915;50.832;4.462;2023-10-09T10:54:07;20.30;99.90
23681;DHT22;62915;50.832;4.462;2023-10-09T10:56:56;20.30;99.90
23681;DHT22;62915;50.832;4.462;2023-10-09T10:59:23;20.40;99.90
23681;DHT22;62915;50.832;4.462;2023-10-09T11:01:52;20.50;99.90
23681;DHT22;62915;50.832;4.462;2023-10-09T11:04:18;20.50;99.90
23681;DHT22;62915;50.832;4.462;2023-10-09T11:06:56;20.60;99.90
23681;DHT22;62915;50.832;4.462;2023-10-09T11:09:48;20.60;99.90
23681;DHT22;62915;50.832;4.462;2023-10-09T11:15:11;20.70;99.90
23681;DHT22;62915;50.832;4.462;2023-10-09T11:20:40;20.80;99.90
23681;DHT22;62915;50.832;4.462;2023-10-09T11:23:20;20.80;99.90
23681;DHT22;62915;50.832;4.462;2023-10-09T11:25:57;20.80;99.90
23681;DHT22;62915;50.832;4.462;2023-10-09T11:28:43;20.90;99.90
23681;DHT22;62915;50.832;4.462;2023-10-09T11:31:15;21.10;99.90
23681;DHT22;62915;50.832;4.462;2023-10-09T11:33:46;21.10;99.90
23681;DHT22;62915;50.832;4.462;2023-10-09T11:36:15;21.20;99.90
23681;DHT22;62915;50.832;4.462;2023-10-09T11:38:41;21.10;99.90
23681;DHT22;62915;50.832;4.462;2023-10-09T11:41:15;21.20;99.90
23681;DHT22;62915;50.832;4.462;2023-10-09T11:43:53;21.20;99.90
23681;DHT22;62915;50.832;4.462;2023-10-09T11:46:21;21.40;99.90
23681;DHT22;62915;50.832;4.462;2023-10-09T11:49:06;21.40;99.90
23681;DHT22;62915;50.832;4.462;2023-10-09T11:51:44;21.50;99.90
23681;DHT22;62915;50.832;4.462;2023-10-09T11:54:34;21.70;99.90
23681;DHT22;62915;50.832;4.462;2023-10-09T11:57:01;21.90;99.90
23681;DHT22;62915;50.832;4.462;2023-10-09T11:59:31;21.80;99.90
23681;DHT22;62915;50.832;4.462;2023-10-09T12:02:09;21.90;99.90
23681;DHT22;62915;50.832;4.462;2023-10-09T12:04:39;21.90;99.90
23681;DHT22;62915;50.832;4.462;2023-10-09T12:07:10;21.90;99.90
23681;DHT22;62915;50.832;4.462;2023-10-09T12:09:37;21.80;99.90
23681;DHT22;62915;50.832;4.462;2023-10-09T12:12:07;21.80;99.90
23681;DHT22;62915;50.832;4.462;2023-10-09T12:14:36;21.90;99.90
23681;DHT22;62915;50.832;4.462;2023-10-09T12:17:07;21.80;99.90
23681;DHT22;62915;50.832;4.462;2023-10-09T12:19:36;21.90;99.90
23681;DHT22;62915;50.832;4.462;2023-10-09T12:22:04;21.70;99.90
23681;DHT22;62915;50.832;4.462;2023-10-09T12:24:31;21.70;99.90
23681;DHT22;62915;50.832;4.462;2023-10-09T12:26:59;21.80;99.90
23681;DHT22;62915;50.832;4.462;2023-10-09T12:29:24;21.80;99.90
23681;DHT22;62915;50.832;4.462;2023-10-09T12:31:57;21.80;99.90
23681;DHT22;62915;50.832;4.462;2023-10-09T12:34:28;21.90;99.90
23681;DHT22;62915;50.832;4.462;2023-10-09T12:36:57;21.80;99.90
23681;DHT22;62915;50.832;4.462;2023-10-09T12:39:27;21.90;99.90
23681;DHT22;62915;50.832;4.462;2023-10-09T12:41:59;21.80;99.90
23681;DHT22;62915;50.832;4.462;2023-10-09T12:44:35;21.80;99.90
23681;DHT22;62915;50.832;4.462;2023-10-09T12:47:08;21.70;99.90
23681;DHT22;62915;50.832;4.462;2023-10-09T12:49:37;21.80;99.90
23681;DHT22;62915;50.832;4.462;2023-10-09T12:52:09;21.90;99.90
23681;DHT22;62915;50.832;4.462;2023-10-09T12:54:45;21.90;99.90
23681;DHT22;62915;50.832;4.462;2023-10-09T12:57:11;22.00;99.90
23681;DHT22;62915;50.832;4.462;2023-10-09T12:59:40;22.00;99.90
23681;DHT22;62915;50.832;4.462;2023-10-09T13:02:12;22.00;99.90
23681;DHT22;62915;50.832;4.462;2023-10-09T13:04:39;22.00;99.90
23681;DHT22;62915;50.832;4.462;2023-10-09T13:07:07;22.10;99.90
23681;DHT22;62915;50.832;4.462;2023-10-09T13:09:33;22.20;99.90
23681;DHT22;62915;50.832;4.462;2023-10-09T13:12:09;22.30;99.90
23681;DHT22;62915;50.832;4.462;2023-10-09T13:14:43;22.30;99.90
23681;DHT22;62915;50.832;4.462;2023-10-09T13:17:09;22.30;99.90
23681;DHT22;62915;50.832;4.462;2023-10-09T13:19:35;22.20;99.90
23681;DHT22;62915;50.832;4.462;2023-10-09T13:22:01;22.20;99.90
23681;DHT22;62915;50.832;4.462;2023-10-09T13:24:29;22.30;99.90
23681;DHT22;62915;50.832;4.462;2023-10-09T13:26:56;22.30;99.90
23681;DHT22;62915;50.832;4.462;2023-10-09T13:29:24;22.40;99.90
23681;DHT22;62915;50.832;4.462;2023-10-09T13:31:50;22.30;99.90
23681;DHT22;62915;50.832;4.462;2023-10-09T13:34:18;22.30;99.90
23681;DHT22;62915;50.832;4.462;2023-10-09T13:36:46;22.30;99.90
23681;DHT22;62915;50.832;4.462;2023-10-09T13:39:18;22.40;99.90
23681;DHT22;62915;50.832;4.462;2023-10-09T13:41:54;22.30;99.90
23681;DHT22;62915;50.832;4.462;2023-10-09T13:44:33;22.30;99.90
23681;DHT22;62915;50.832;4.462;2023-10-09T13:47:01;22.40;99.90
23681;DHT22;62915;50.832;4.462;2023-10-09T13:49:27;22.40;99.90
23681;DHT22;62915;50.832;4.462;2023-10-09T13:51:56;22.40;99.90
23681;DHT22;62915;50.832;4.462;2023-10-09T13:54:23;22.30;99.90
23681;DHT22;62915;50.832;4.462;2023-10-09T13:57:01;22.30;99.90
23681;DHT22;62915;50.832;4.462;2023-10-09T13:59:30;22.20;99.90
23681;DHT22;62915;50.832;4.462;2023-10-09T14:01:56;22.20;99.90
23681;DHT22;62915;50.832;4.462;2023-10-09T14:04:25;22.10;99.90
23681;DHT22;62915;50.832;4.462;2023-10-09T14:06:52;22.20;99.90
23681;DHT22;62915;50.832;4.462;2023-10-09T14:09:26;22.20;99.90
23681;DHT22;62915;50.832;4.462;2023-10-09T14:12:05;22.10;99.90
23681;DHT22;62915;50.832;4.462;2023-10-09T14:14:39;22.30;99.90
23681;DHT22;62915;50.832;4.462;2023-10-09T14:17:18;22.40;99.90
23681;DHT22;62915;50.832;4.462;2023-10-09T14:19:57;22.50;99.90
23681;DHT22;62915;50.832;4.462;2023-10-09T14:22:42;22.50;99.90
23681;DHT22;62915;50.832;4.462;2023-10-09T14:25:08;22.50;99.90
23681;DHT22;62915;50.832;4.462;2023-10-09T14:27:40;22.30;99.90
23681;DHT22;62915;50.832;4.462;2023-10-09T14:30:07;22.30;99.90
23681;DHT22;62915;50.832;4.462;2023-10-09T14:32:38;22.30;99.90
23681;DHT22;62915;50.832;4.462;2023-10-09T14:35:13;22.30;99.90
23681;DHT22;62915;50.832;4.462;2023-10-09T14:37:39;22.40;99.90
23681;DHT22;62915;50.832;4.462;2023-10-09T14:40:06;22.40;99.90
23681;DHT22;62915;50.832;4.462;2023-10-09T14:42:41;22.50;99.90
23681;DHT22;62915;50.832;4.462;2023-10-09T14:45:11;22.50;99.90
23681;DHT22;62915;50.832;4.462;2023-10-09T14:47:44;22.50;99.90
23681;DHT22;62915;50.832;4.462;2023-10-09T14:50:12;22.40;99.90
23681;DHT22;62915;50.832;4.462;2023-10-09T14:52:39;22.40;99.90
23681;DHT22;62915;50.832;4.462;2023-10-09T14:55:06;22.30;99.90
23681;DHT22;62915;50.832;4.462;2023-10-09T14:57:32;22.30;99.90
23681;DHT22;62915;50.832;4.462;2023-10-09T15:00:04;22.30;99.90
23681;DHT22;62915;50.832;4.462;2023-10-09T15:02:41;22.20;99.90
23681;DHT22;62915;50.832;4.462;2023-10-09T15:05:07;22.20;99.90
23681;DHT22;62915;50.832;4.462;2023-10-09T15:07:38;22.20;99.90
23681;DHT22;62915;50.832;4.462;2023-10-09T15:10:07;22.10;99.90
23681;DHT22;62915;50.832;4.462;2023-10-09T15:12:35;22.10;99.90
23681;DHT22;62915;50.832;4.462;2023-10-09T15:15:08;22.00;99.90
23681;DHT22;62915;50.832;4.462;2023-10-09T15:17:42;22.00;99.90
23681;DHT22;62915;50.832;4.462;2023-10-09T15:20:14;22.00;99.90
23681;DHT22;62915;50.832;4.462;2023-10-09T15:22:44;22.00;99.90
23681;DHT22;62915;50.832;4.462;2023-10-09T15:25:10;22.10;99.90
23681;DHT22;62915;50.832;4.462;2023-10-09T15:27:50;22.10;99.90
23681;DHT22;62915;50.832;4.462;2023-10-09T15:30:15;22.20;99.90
23681;DHT22;62915;50.832;4.462;2023-10-09T15:32:42;22.00;99.90
23681;DHT22;62915;50.832;4.462;2023-10-09T15:35:09;22.10;99.90
23681;DHT22;62915;50.832;4.462;2023-10-09T15:37:36;22.00;99.90
23681;DHT22;62915;50.832;4.462;2023-10-09T15:40:02;22.00;99.90
23681;DHT22;62915;50.832;4.462;2023-10-09T15:42:31;22.00;99.90
23681;DHT22;62915;50.832;4.462;2023-10-09T15:44:57;21.90;99.90
23681;DHT22;62915;50.832;4.462;2023-10-09T15:47:22;22.00;99.90
23681;DHT22;62915;50.832;4.462;2023-10-09T15:49:50;22.00;99.90
23681;DHT22;62915;50.832;4.462;2023-10-09T15:52:19;21.80;99.90
23681;DHT22;62915;50.832;4.462;2023-10-09T15:54:46;21.90;99.90
23681;DHT22;62915;50.832;4.462;2023-10-09T15:57:13;21.90;99.90
23681;DHT22;62915;50.832;4.462;2023-10-09T15:59:39;21.90;99.90
23681;DHT22;62915;50.832;4.462;2023-10-09T16:02:05;21.90;99.90
23681;DHT22;62915;50.832;4.462;2023-10-09T16:04:31;21.90;99.90
23681;DHT22;62915;50.832;4.462;2023-10-09T16:07:00;21.80;99.90
23681;DHT22;62915;50.832;4.462;2023-10-09T16:09:26;21.80;99.90
23681;DHT22;62915;50.832;4.462;2023-10-09T16:11:54;21.80;99.90
23681;DHT22;62915;50.832;4.462;2023-10-09T16:14:20;21.80;99.90
23681;DHT22;62915;50.832;4.462;2023-10-09T16:16:46;21.70;99.90
23681;DHT22;62915;50.832;4.462;2023-10-09T16:19:11;21.60;99.90
23681;DHT22;62915;50.832;4.462;2023-10-09T16:21:38;21.60;99.90
23681;DHT22;62915;50.832;4.462;2023-10-09T16:24:05;21.60;99.90